createdAt,value
2023-05-10T00:00:03.625Z,56.79
2023-05-10T00:00:36.395Z,56.83
2023-05-10T00:01:00.631Z,56.83
2023-05-10T00:01:22.356Z,56.93
2023-05-10T00:01:44.019Z,56.64
2023-05-10T00:02:07.554Z,56.63
2023-05-10T00:02:29.418Z,56.82
2023-05-10T00:02:51.555Z,56.38
2023-05-10T00:03:13.452Z,56.49
2023-05-10T00:03:35.214Z,56.86
2023-05-10T00:03:59.056Z,56.37
2023-05-10T00:04:21.039Z,56.13
2023-05-10T00:04:45.291Z,56.06
2023-05-10T00:05:07.943Z,56.14
2023-05-10T00:05:30.812Z,56.34
2023-05-10T00:05:52.526Z,56.31
2023-05-10T00:06:14.756Z,56.48
2023-05-10T00:06:36.729Z,56.75
2023-05-10T00:06:58.602Z,56.81
2023-05-10T00:07:25.536Z,56.52
2023-05-10T00:07:48.804Z,56.75
2023-05-10T00:08:10.878Z,56.59
2023-05-10T00:08:32.625Z,56.46
2023-05-10T00:08:54.434Z,56.70
2023-05-10T00:09:18.007Z,56.77
2023-05-10T00:09:40.980Z,56.67
2023-05-10T00:10:02.668Z,56.89
2023-05-10T00:10:25.333Z,56.74
2023-05-10T00:10:49.664Z,56.42
2023-05-10T00:11:12.635Z,56.58
2023-05-10T00:11:35.917Z,56.47
2023-05-10T00:12:01.269Z,56.80
2023-05-10T00:12:38.122Z,56.75
2023-05-10T00:12:59.873Z,56.20
2023-05-10T00:13:21.676Z,56.03
2023-05-10T00:13:43.656Z,56.36
2023-05-10T00:14:06.456Z,56.04
2023-05-10T00:14:28.164Z,55.78
2023-05-10T00:14:49.749Z,56.12
2023-05-10T00:15:11.709Z,56.20
2023-05-10T00:15:33.418Z,56.11
2023-05-10T00:15:56.030Z,56.25
2023-05-10T00:16:17.675Z,56.22
2023-05-10T00:16:39.365Z,56.07
2023-05-10T00:17:01.249Z,56.17
2023-05-10T00:17:23.948Z,56.00
2023-05-10T00:17:45.623Z,56.19
2023-05-10T00:18:07.545Z,56.35
2023-05-10T00:18:29.150Z,56.02
2023-05-10T00:18:50.822Z,55.97
2023-05-10T00:19:13.505Z,55.98
2023-05-10T00:19:35.269Z,56.13
2023-05-10T00:19:56.864Z,56.15
2023-05-10T00:20:18.740Z,56.34
2023-05-10T00:20:40.636Z,56.40
2023-05-10T00:21:03.277Z,56.45
2023-05-10T00:21:24.867Z,56.50
2023-05-10T00:21:46.548Z,56.50
2023-05-10T00:22:08.106Z,56.86
2023-05-10T00:22:30.699Z,56.72
2023-05-10T00:22:52.304Z,56.62
2023-05-10T00:23:13.889Z,56.60
2023-05-10T00:23:35.535Z,56.30
2023-05-10T00:23:57.331Z,56.55
2023-05-10T00:24:19.945Z,56.52
2023-05-10T00:24:41.547Z,56.57
2023-05-10T00:25:03.291Z,56.42
2023-05-10T00:25:24.917Z,56.34
2023-05-10T00:25:47.549Z,56.50
2023-05-10T00:26:09.122Z,56.71
2023-05-10T00:26:32.897Z,56.85
2023-05-10T00:26:55.080Z,56.90
2023-05-10T00:27:19.045Z,57.26
2023-05-10T00:27:40.801Z,57.32
2023-05-10T00:28:02.724Z,56.63
2023-05-10T00:28:24.366Z,56.35
2023-05-10T00:28:46.936Z,56.46
2023-05-10T00:29:08.655Z,56.15
2023-05-10T00:29:30.320Z,56.33
2023-05-10T00:29:51.986Z,56.31
2023-05-10T00:30:14.796Z,56.29
2023-05-10T00:30:37.505Z,56.68
2023-05-10T00:30:59.103Z,56.47
2023-05-10T00:31:20.818Z,56.21
2023-05-10T00:31:43.471Z,56.24
2023-05-10T00:32:05.553Z,56.29
2023-05-10T00:32:27.315Z,56.51
2023-05-10T00:32:49.205Z,56.74
2023-05-10T00:33:12.413Z,56.85
2023-05-10T00:33:34.084Z,56.44
2023-05-10T00:33:55.872Z,56.42
2023-05-10T00:34:19.082Z,56.63
2023-05-10T00:34:40.752Z,56.43
2023-05-10T00:35:04.087Z,56.97
2023-05-10T00:35:27.022Z,56.81
2023-05-10T00:35:49.060Z,56.87
2023-05-10T00:36:10.953Z,56.86
2023-05-10T00:36:33.939Z,57.20
2023-05-10T00:36:55.809Z,57.01
2023-05-10T00:37:17.720Z,56.98
2023-05-10T00:37:39.835Z,56.82
2023-05-10T00:38:03.808Z,56.88
2023-05-10T00:38:26.941Z,57.17
2023-05-10T00:38:50.112Z,57.35
2023-05-10T00:39:12.056Z,56.92
2023-05-10T00:39:37.046Z,56.68
2023-05-10T00:39:59.919Z,56.83
2023-05-10T00:40:23.313Z,56.45
2023-05-10T00:40:49.541Z,56.60
2023-05-10T00:41:20.242Z,57.19
2023-05-10T00:41:43.650Z,57.18
2023-05-10T00:42:05.569Z,57.03
2023-05-10T00:42:31.703Z,56.96
2023-05-10T00:42:56.042Z,56.88
2023-05-10T00:43:19.020Z,56.86
2023-05-10T00:43:42.813Z,57.06
2023-05-10T00:44:07.445Z,56.78
2023-05-10T00:44:29.972Z,56.83
2023-05-10T00:44:51.767Z,56.56
2023-05-10T00:45:13.418Z,56.45
2023-05-10T00:45:37.576Z,56.44
2023-05-10T00:46:00.424Z,56.58
2023-05-10T00:46:22.796Z,56.72
2023-05-10T00:46:44.506Z,56.71
2023-05-10T00:47:06.585Z,56.32
2023-05-10T00:47:29.718Z,56.75
2023-05-10T00:47:53.040Z,56.76
2023-05-10T00:48:14.865Z,56.87
2023-05-10T00:48:37.178Z,57.00
2023-05-10T00:48:59.943Z,56.74
2023-05-10T00:49:21.880Z,56.99
2023-05-10T00:49:44.228Z,56.87
2023-05-10T00:50:07.582Z,56.90
2023-05-10T00:50:30.651Z,56.91
2023-05-10T00:50:52.325Z,57.00
2023-05-10T00:51:14.457Z,56.95
2023-05-10T00:51:36.162Z,56.96
2023-05-10T00:51:58.054Z,56.78
2023-05-10T00:52:23.417Z,56.88
2023-05-10T00:52:45.097Z,56.87
2023-05-10T00:53:07.145Z,56.85
2023-05-10T00:53:29.737Z,56.88
2023-05-10T00:53:52.383Z,57.11
2023-05-10T00:54:16.795Z,57.32
2023-05-10T00:54:38.534Z,57.38
2023-05-10T00:55:01.061Z,57.13
2023-05-10T00:55:22.877Z,56.93
2023-05-10T00:55:46.453Z,57.00
2023-05-10T00:56:08.920Z,56.75
2023-05-10T00:56:31.345Z,56.88
2023-05-10T00:56:52.997Z,56.73
2023-05-10T00:57:14.582Z,56.72
2023-05-10T00:57:38.683Z,56.96
2023-05-10T00:58:00.442Z,57.02
2023-05-10T00:58:24.215Z,57.26
2023-05-10T00:58:46.135Z,56.91
2023-05-10T00:59:09.052Z,56.44
2023-05-10T00:59:31.930Z,56.61
2023-05-10T00:59:53.514Z,56.33
2023-05-10T01:00:19.053Z,56.78
2023-05-10T01:00:43.550Z,57.21
2023-05-10T01:01:06.885Z,56.87
2023-05-10T01:01:29.574Z,57.42
2023-05-10T01:01:52.463Z,56.86
2023-05-10T01:02:14.216Z,56.90
2023-05-10T01:02:36.451Z,56.83
2023-05-10T01:03:00.044Z,56.97
2023-05-10T01:03:22.068Z,57.18
2023-05-10T01:03:44.667Z,57.19
2023-05-10T01:04:06.804Z,57.20
2023-05-10T01:04:29.727Z,57.14
2023-05-10T01:04:53.007Z,56.83
2023-05-10T01:05:14.835Z,56.91
2023-05-10T01:05:36.583Z,56.79
2023-05-10T01:05:59.389Z,56.67
2023-05-10T01:06:21.031Z,56.61
2023-05-10T01:06:43.041Z,56.70
2023-05-10T01:07:04.639Z,56.81
2023-05-10T01:07:26.412Z,56.70
2023-05-10T01:07:49.301Z,56.82
2023-05-10T01:08:11.131Z,56.90
2023-05-10T01:08:33.218Z,57.12
2023-05-10T01:08:54.913Z,56.98
2023-05-10T01:09:16.634Z,57.17
2023-05-10T01:09:38.650Z,56.64
2023-05-10T01:10:01.323Z,56.40
2023-05-10T01:10:23.238Z,56.37
2023-05-10T01:10:45.204Z,56.28
2023-05-10T01:11:06.874Z,56.37
2023-05-10T01:11:30.546Z,56.82
2023-05-10T01:11:52.211Z,56.95
2023-05-10T01:12:14.350Z,56.83
2023-05-10T01:12:41.477Z,56.93
2023-05-10T01:13:04.418Z,57.03
2023-05-10T01:13:33.871Z,57.14
2023-05-10T01:13:58.642Z,57.18
2023-05-10T01:14:21.021Z,57.30
2023-05-10T01:14:42.884Z,57.34
2023-05-10T01:15:07.252Z,57.10
2023-05-10T01:15:28.942Z,57.01
2023-05-10T01:15:50.803Z,57.14
2023-05-10T01:16:15.987Z,56.95
2023-05-10T01:16:41.491Z,57.47
2023-05-10T01:17:04.833Z,57.46
2023-05-10T01:17:26.803Z,57.34
2023-05-10T01:17:51.148Z,57.40
2023-05-10T01:18:14.102Z,57.01
2023-05-10T01:18:40.839Z,57.49
2023-05-10T01:19:04.069Z,57.51
2023-05-10T01:19:30.456Z,57.17
2023-05-10T01:19:52.257Z,57.35
2023-05-10T01:20:14.885Z,57.26
2023-05-10T01:20:41.613Z,57.39
2023-05-10T01:21:16.826Z,57.66
2023-05-10T01:21:47.646Z,57.43
2023-05-10T01:22:26.890Z,56.72
2023-05-10T01:23:12.645Z,57.05
2023-05-10T01:23:54.967Z,57.14
2023-05-10T01:24:41.623Z,56.76
2023-05-10T01:25:28.741Z,56.60
2023-05-10T01:26:28.740Z,56.97
2023-05-10T01:27:19.393Z,56.85
2023-05-10T01:28:10.269Z,56.72
2023-05-10T01:29:03.066Z,56.78
2023-05-10T01:30:13.582Z,56.84
2023-05-10T01:31:08.993Z,57.66
2023-05-10T01:32:07.105Z,57.27
2023-05-10T01:32:36.662Z,56.95
2023-05-10T01:33:03.891Z,56.84
2023-05-10T01:33:31.254Z,56.56
2023-05-10T01:33:57.101Z,56.51
2023-05-10T01:34:24.626Z,56.60
2023-05-10T01:34:55.649Z,56.74
2023-05-10T01:35:23.093Z,56.19
2023-05-10T01:35:52.433Z,56.63
2023-05-10T01:36:20.405Z,56.68
2023-05-10T01:36:50.323Z,56.70
2023-05-10T01:37:18.081Z,56.78
2023-05-10T01:37:46.473Z,56.57
2023-05-10T01:38:22.650Z,56.55
2023-05-10T01:38:52.472Z,56.67
2023-05-10T01:39:22.371Z,57.15
2023-05-10T01:39:49.982Z,57.30
2023-05-10T01:40:22.287Z,57.30
2023-05-10T01:40:53.617Z,56.99
2023-05-10T01:41:22.196Z,57.23
2023-05-10T01:41:51.426Z,56.91
2023-05-10T01:42:22.325Z,56.69
2023-05-10T01:42:52.619Z,56.74
2023-05-10T01:43:23.400Z,56.76
2023-05-10T01:43:57.066Z,56.95
2023-05-10T01:44:37.150Z,56.54
2023-05-10T01:45:05.585Z,56.41
2023-05-10T01:45:32.561Z,57.04
2023-05-10T01:46:01.913Z,57.01
2023-05-10T01:46:30.091Z,57.09
2023-05-10T01:46:59.392Z,56.92
2023-05-10T01:47:30.604Z,57.31
2023-05-10T01:48:03.569Z,57.07
2023-05-10T01:48:29.641Z,56.68
2023-05-10T01:48:55.707Z,56.63
2023-05-10T01:49:24.651Z,57.07
2023-05-10T01:49:50.540Z,57.31
2023-05-10T01:50:20.085Z,57.07
2023-05-10T01:50:46.596Z,57.08
2023-05-10T01:51:10.124Z,56.95
2023-05-10T01:51:41.445Z,56.90
2023-05-10T01:52:09.424Z,57.05
2023-05-10T01:52:34.623Z,56.46
2023-05-10T01:52:58.620Z,56.51
2023-05-10T01:53:23.347Z,56.68
2023-05-10T01:53:47.220Z,56.75
2023-05-10T01:54:12.454Z,56.31
2023-05-10T01:54:37.480Z,56.53
2023-05-10T01:55:03.524Z,56.49
2023-05-10T01:55:28.465Z,56.44
2023-05-10T01:55:53.833Z,56.42
2023-05-10T01:56:18.682Z,56.50
2023-05-10T01:56:41.930Z,56.61
2023-05-10T01:57:08.453Z,56.74
2023-05-10T01:57:35.560Z,57.33
2023-05-10T01:58:05.594Z,57.35
2023-05-10T01:58:32.889Z,56.89
2023-05-10T01:58:58.165Z,57.35
2023-05-10T01:59:21.305Z,57.24
2023-05-10T01:59:47.449Z,57.12
2023-05-10T02:00:11.584Z,56.97
2023-05-10T02:00:39.148Z,57.00
2023-05-10T02:01:05.798Z,56.78
2023-05-10T02:01:30.217Z,56.97
2023-05-10T02:01:55.582Z,57.17
2023-05-10T02:02:20.480Z,57.22
2023-05-10T02:02:47.217Z,57.25
2023-05-10T02:03:16.641Z,57.09
2023-05-10T02:03:42.735Z,57.49
2023-05-10T02:04:06.645Z,57.37
2023-05-10T02:04:30.221Z,57.56
2023-05-10T02:04:54.696Z,57.29
2023-05-10T02:05:18.110Z,57.12
2023-05-10T02:05:41.637Z,57.49
2023-05-10T02:06:05.751Z,57.68
2023-05-10T02:06:28.250Z,57.21
2023-05-10T02:06:52.245Z,56.89
2023-05-10T02:07:16.502Z,57.04
2023-05-10T02:07:39.385Z,57.03
2023-05-10T02:08:04.276Z,56.70
2023-05-10T02:08:27.268Z,56.91
2023-05-10T02:08:52.516Z,57.23
2023-05-10T02:09:16.249Z,57.67
2023-05-10T02:09:39.160Z,57.55
2023-05-10T02:10:02.918Z,57.37
2023-05-10T02:10:24.809Z,57.11
2023-05-10T02:10:48.925Z,56.77
2023-05-10T02:11:15.121Z,56.59
2023-05-10T02:11:38.876Z,56.15
2023-05-10T02:12:03.426Z,56.06
2023-05-10T02:12:26.803Z,56.32
2023-05-10T02:12:51.941Z,56.52
2023-05-10T02:13:17.108Z,56.41
2023-05-10T02:13:40.347Z,56.00
2023-05-10T02:14:04.025Z,55.61
2023-05-10T02:14:29.193Z,55.66
2023-05-10T02:14:54.687Z,56.41
2023-05-10T02:15:21.932Z,56.52
2023-05-10T02:15:44.237Z,56.19
2023-05-10T02:16:08.258Z,56.09
2023-05-10T02:16:32.862Z,55.99
2023-05-10T02:16:56.884Z,56.22
2023-05-10T02:17:19.766Z,56.21
2023-05-10T02:17:43.445Z,56.02
2023-05-10T02:18:07.704Z,55.83
2023-05-10T02:18:32.479Z,56.49
2023-05-10T02:18:55.665Z,56.60
2023-05-10T02:19:20.165Z,56.91
2023-05-10T02:19:44.213Z,56.87
2023-05-10T02:20:10.171Z,56.35
2023-05-10T02:20:34.918Z,56.34
2023-05-10T02:21:01.132Z,56.33
2023-05-10T02:21:23.790Z,56.55
2023-05-10T02:21:47.334Z,56.35
2023-05-10T02:22:10.637Z,56.68
2023-05-10T02:22:35.072Z,56.77
2023-05-10T02:22:58.544Z,56.46
2023-05-10T02:23:22.157Z,56.95
2023-05-10T02:23:46.629Z,56.88
2023-05-10T02:24:12.611Z,56.87
2023-05-10T02:24:37.742Z,56.71
2023-05-10T02:25:00.446Z,56.33
2023-05-10T02:25:25.175Z,56.58
2023-05-10T02:25:53.658Z,56.60
2023-05-10T02:26:19.109Z,56.54
2023-05-10T02:26:44.160Z,56.60
2023-05-10T02:27:07.977Z,56.44
2023-05-10T02:27:31.288Z,56.48
2023-05-10T02:27:57.096Z,56.57
2023-05-10T02:28:20.445Z,56.68
2023-05-10T02:28:43.888Z,56.69
2023-05-10T02:29:07.644Z,56.68
2023-05-10T02:29:31.767Z,56.12
2023-05-10T02:29:54.497Z,56.05
2023-05-10T02:30:18.880Z,56.30
2023-05-10T02:30:41.207Z,56.42
2023-05-10T02:31:04.489Z,56.20
2023-05-10T02:31:27.007Z,56.60
2023-05-10T02:31:50.152Z,56.85
2023-05-10T02:32:12.976Z,56.64
2023-05-10T02:32:36.301Z,56.72
2023-05-10T02:32:59.802Z,56.23
2023-05-10T02:33:23.043Z,56.30
2023-05-10T02:33:46.990Z,56.48
2023-05-10T02:34:10.015Z,56.34
2023-05-10T02:34:33.674Z,56.36
2023-05-10T02:34:56.924Z,56.39
2023-05-10T02:35:18.659Z,56.21
2023-05-10T02:35:40.720Z,56.23
2023-05-10T02:36:06.611Z,56.15
2023-05-10T02:36:29.582Z,56.44
2023-05-10T02:36:53.199Z,56.26
2023-05-10T02:37:16.970Z,56.18
2023-05-10T02:37:41.680Z,56.38
2023-05-10T02:38:04.056Z,57.00
2023-05-10T02:38:26.907Z,56.57
2023-05-10T02:38:49.841Z,56.44
2023-05-10T02:39:14.545Z,56.60
2023-05-10T02:39:36.595Z,56.41
2023-05-10T02:39:59.470Z,56.31
2023-05-10T02:40:23.297Z,56.25
2023-05-10T02:40:46.820Z,55.76
2023-05-10T02:41:10.502Z,56.17
2023-05-10T02:41:33.889Z,56.46
2023-05-10T02:41:57.062Z,56.93
2023-05-10T02:42:21.453Z,57.01
2023-05-10T02:42:44.661Z,56.83
2023-05-10T02:43:09.957Z,56.97
2023-05-10T02:43:33.324Z,56.52
2023-05-10T02:44:01.208Z,56.15
2023-05-10T02:44:24.693Z,56.89
2023-05-10T02:44:48.852Z,56.55
2023-05-10T02:45:14.388Z,56.49
2023-05-10T02:45:40.636Z,56.17
2023-05-10T02:46:03.308Z,55.61
2023-05-10T02:46:25.099Z,55.32
2023-05-10T02:46:47.764Z,55.63
2023-05-10T02:47:09.485Z,55.49
2023-05-10T02:47:32.215Z,55.87
2023-05-10T02:47:53.994Z,55.97
2023-05-10T02:48:17.495Z,56.00
2023-05-10T02:48:41.488Z,56.08
2023-05-10T02:49:06.674Z,56.28
2023-05-10T02:49:29.360Z,56.57
2023-05-10T02:49:51.039Z,56.21
2023-05-10T02:50:13.124Z,56.24
2023-05-10T02:50:36.338Z,56.70
2023-05-10T02:51:05.486Z,56.93
2023-05-10T02:51:32.529Z,56.63
2023-05-10T02:52:01.323Z,56.40
2023-05-10T02:52:30.482Z,56.38
2023-05-10T02:52:54.064Z,56.28
2023-05-10T02:53:20.090Z,55.87
2023-05-10T02:53:47.633Z,55.94
2023-05-10T02:54:14.245Z,56.26
2023-05-10T02:54:45.222Z,56.68
2023-05-10T02:55:10.947Z,56.54
2023-05-10T02:55:38.865Z,56.89
2023-05-10T02:56:05.332Z,56.41
2023-05-10T02:56:34.284Z,56.55
2023-05-10T02:57:02.599Z,56.74
2023-05-10T02:57:28.848Z,56.91
2023-05-10T02:57:55.852Z,56.63
2023-05-10T02:58:20.210Z,56.31
2023-05-10T02:58:42.816Z,56.41
2023-05-10T02:59:04.567Z,56.78
2023-05-10T02:59:26.215Z,56.67
2023-05-10T02:59:47.779Z,56.82
2023-05-10T03:00:10.102Z,56.94
2023-05-10T03:00:33.096Z,56.32
2023-05-10T03:00:54.874Z,56.55
2023-05-10T03:01:16.588Z,56.56
2023-05-10T03:01:38.416Z,56.93
2023-05-10T03:02:01.864Z,56.24
2023-05-10T03:02:23.557Z,56.26
2023-05-10T03:02:45.243Z,56.24
2023-05-10T03:03:07.743Z,56.75
2023-05-10T03:03:30.398Z,56.80
2023-05-10T03:03:52.031Z,56.67
2023-05-10T03:04:15.148Z,56.73
2023-05-10T03:04:36.987Z,56.53
2023-05-10T03:04:58.600Z,56.74
2023-05-10T03:05:21.822Z,56.36
2023-05-10T03:05:43.598Z,56.88
2023-05-10T03:06:05.776Z,56.48
2023-05-10T03:06:27.520Z,56.55
2023-05-10T03:06:50.217Z,56.35
2023-05-10T03:07:12.041Z,56.87
2023-05-10T03:07:34.081Z,56.71
2023-05-10T03:07:56.583Z,56.80
2023-05-10T03:08:20.063Z,56.51
2023-05-10T03:08:41.721Z,56.73
2023-05-10T03:09:08.648Z,56.79
2023-05-10T03:09:32.377Z,56.79
2023-05-10T03:09:55.436Z,56.85
2023-05-10T03:10:19.873Z,56.91
2023-05-10T03:11:04.272Z,56.62
2023-05-10T03:11:39.587Z,56.46
2023-05-10T03:12:08.227Z,56.48
2023-05-10T03:12:42.592Z,56.53
2023-05-10T03:13:12.097Z,56.32
2023-05-10T03:13:41.773Z,56.19
2023-05-10T03:14:22.137Z,56.53
2023-05-10T03:14:54.341Z,56.16
2023-05-10T03:15:26.142Z,56.01
2023-05-10T03:15:57.521Z,56.33
2023-05-10T03:16:30.379Z,56.01
2023-05-10T03:17:00.177Z,56.18
2023-05-10T03:17:27.678Z,56.03
2023-05-10T03:17:56.740Z,56.19
2023-05-10T03:18:22.443Z,56.22
2023-05-10T03:18:49.061Z,56.00
2023-05-10T03:19:18.594Z,56.23
2023-05-10T03:19:47.937Z,56.00
2023-05-10T03:20:12.641Z,55.61
2023-05-10T03:20:39.397Z,55.75
2023-05-10T03:21:06.457Z,55.80
2023-05-10T03:21:30.819Z,56.27
2023-05-10T03:21:54.522Z,56.17
2023-05-10T03:22:24.617Z,56.35
2023-05-10T03:22:51.261Z,56.67
2023-05-10T03:23:21.839Z,56.29
2023-05-10T03:23:48.204Z,56.57
2023-05-10T03:24:13.244Z,56.48
2023-05-10T03:24:37.626Z,56.31
2023-05-10T03:25:05.463Z,56.48
2023-05-10T03:25:28.874Z,56.51
2023-05-10T03:25:51.440Z,56.35
2023-05-10T03:26:18.637Z,56.42
2023-05-10T03:26:45.496Z,56.32
2023-05-10T03:27:11.600Z,56.26
2023-05-10T03:27:33.555Z,56.44
2023-05-10T03:27:57.875Z,56.77
2023-05-10T03:28:23.153Z,56.67
2023-05-10T03:28:45.334Z,56.84
2023-05-10T03:29:07.598Z,57.14
2023-05-10T03:29:30.506Z,57.17
2023-05-10T03:29:53.424Z,57.18
2023-05-10T03:30:16.136Z,56.77
2023-05-10T03:30:39.194Z,56.57
2023-05-10T03:31:05.433Z,56.93
2023-05-10T03:31:32.332Z,56.65
2023-05-10T03:31:55.340Z,56.67
2023-05-10T03:32:18.606Z,56.45
2023-05-10T03:32:41.422Z,55.83
2023-05-10T03:33:07.485Z,55.99
2023-05-10T03:33:32.784Z,55.74
2023-05-10T03:33:55.914Z,55.56
2023-05-10T03:34:27.160Z,55.75
2023-05-10T03:34:50.404Z,55.99
2023-05-10T03:35:14.158Z,56.08
2023-05-10T03:35:36.774Z,56.07
2023-05-10T03:36:01.348Z,56.48
2023-05-10T03:36:24.511Z,56.24
2023-05-10T03:36:47.065Z,56.62
2023-05-10T03:37:10.550Z,56.86
2023-05-10T03:37:32.696Z,56.73
2023-05-10T03:37:56.780Z,56.72
2023-05-10T03:38:18.908Z,56.48
2023-05-10T03:38:41.457Z,56.65
2023-05-10T03:39:04.246Z,56.58
2023-05-10T03:39:27.074Z,56.65
2023-05-10T03:39:53.394Z,56.38
2023-05-10T03:40:18.361Z,56.26
2023-05-10T03:40:40.680Z,56.38
2023-05-10T03:41:04.080Z,56.64
2023-05-10T03:41:26.318Z,56.55
2023-05-10T03:41:48.782Z,56.50
2023-05-10T03:42:12.804Z,56.52
2023-05-10T03:42:35.504Z,56.67
2023-05-10T03:42:57.110Z,56.58
2023-05-10T03:43:18.708Z,56.79
2023-05-10T03:43:40.703Z,56.75
2023-05-10T03:44:03.312Z,56.71
2023-05-10T03:44:24.960Z,56.70
2023-05-10T03:44:46.743Z,56.46
2023-05-10T03:45:10.028Z,56.71
2023-05-10T03:45:31.726Z,56.54
2023-05-10T03:45:55.955Z,56.57
2023-05-10T03:46:17.768Z,56.38
2023-05-10T03:46:39.844Z,56.22
2023-05-10T03:47:01.557Z,56.11
2023-05-10T03:47:23.342Z,55.80
2023-05-10T03:47:46.016Z,55.78
2023-05-10T03:48:07.651Z,55.42
2023-05-10T03:48:29.297Z,55.43
2023-05-10T03:48:50.919Z,55.53
2023-05-10T03:49:12.915Z,55.22
2023-05-10T03:49:38.426Z,55.89
2023-05-10T03:50:00.616Z,55.99
2023-05-10T03:50:22.605Z,56.24
2023-05-10T03:50:44.227Z,56.24
2023-05-10T03:51:06.334Z,56.62
2023-05-10T03:51:32.007Z,56.16
2023-05-10T03:51:54.256Z,56.45
2023-05-10T03:52:16.342Z,56.14
2023-05-10T03:52:39.946Z,56.52
2023-05-10T03:53:03.115Z,56.27
2023-05-10T03:53:24.873Z,56.08
2023-05-10T03:53:47.151Z,56.38
2023-05-10T03:54:08.972Z,56.16
2023-05-10T03:54:30.606Z,55.84
2023-05-10T03:54:54.714Z,56.02
2023-05-10T03:55:17.237Z,56.16
2023-05-10T03:55:39.211Z,56.51
2023-05-10T03:56:00.957Z,56.73
2023-05-10T03:56:24.185Z,56.79
2023-05-10T03:56:48.746Z,56.41
2023-05-10T03:57:11.389Z,56.63
2023-05-10T03:57:33.220Z,56.79
2023-05-10T03:57:55.641Z,56.75
2023-05-10T03:58:19.367Z,56.79
2023-05-10T03:58:41.570Z,56.61
2023-05-10T03:59:08.266Z,56.61
2023-05-10T03:59:30.058Z,56.97
2023-05-10T03:59:53.519Z,56.78
2023-05-10T04:00:16.479Z,56.56
2023-05-10T04:00:38.333Z,56.24
2023-05-10T04:01:00.518Z,56.38
2023-05-10T04:01:23.121Z,56.61
2023-05-10T04:01:44.783Z,56.40
2023-05-10T04:02:06.974Z,56.51
2023-05-10T04:02:28.755Z,56.48
2023-05-10T04:02:50.586Z,56.50
2023-05-10T04:03:16.154Z,56.37
2023-05-10T04:03:38.095Z,56.59
2023-05-10T04:04:00.931Z,56.45
2023-05-10T04:04:22.856Z,56.90
2023-05-10T04:04:47.458Z,56.39
2023-05-10T04:05:11.317Z,56.58
2023-05-10T04:05:33.426Z,56.30
2023-05-10T04:06:01.488Z,56.75
2023-05-10T04:06:23.147Z,57.03
2023-05-10T04:06:46.168Z,56.58
2023-05-10T04:07:08.330Z,56.63
2023-05-10T04:07:30.299Z,56.47
2023-05-10T04:07:52.084Z,56.94
2023-05-10T04:08:14.094Z,57.05
2023-05-10T04:08:36.736Z,57.14
2023-05-10T04:09:00.790Z,57.56
2023-05-10T04:09:22.471Z,57.73
2023-05-10T04:09:44.373Z,57.97
2023-05-10T04:10:06.749Z,57.76
2023-05-10T04:10:29.471Z,57.51
2023-05-10T04:10:51.120Z,57.43
2023-05-10T04:11:13.550Z,57.68
2023-05-10T04:11:35.223Z,57.41
2023-05-10T04:11:57.781Z,57.32
2023-05-10T04:12:19.376Z,57.44
2023-05-10T04:12:40.957Z,57.26
2023-05-10T04:13:02.629Z,57.51
2023-05-10T04:13:24.610Z,57.62
2023-05-10T04:13:47.527Z,58.06
2023-05-10T04:14:09.222Z,58.29
2023-05-10T04:14:30.797Z,58.13
2023-05-10T04:14:52.454Z,58.30
2023-05-10T04:15:14.092Z,58.20
2023-05-10T04:15:36.987Z,58.32
2023-05-10T04:15:58.586Z,57.67
2023-05-10T04:16:20.242Z,57.62
2023-05-10T04:16:42.007Z,57.49
2023-05-10T04:17:04.715Z,57.57
2023-05-10T04:17:26.393Z,57.53
2023-05-10T04:17:48.455Z,57.72
2023-05-10T04:18:11.211Z,57.49
2023-05-10T04:18:33.139Z,57.61
2023-05-10T04:18:54.874Z,57.11
2023-05-10T04:19:16.480Z,57.35
2023-05-10T04:19:38.126Z,57.28
2023-05-10T04:20:02.106Z,57.33
2023-05-10T04:20:24.794Z,57.10
2023-05-10T04:20:46.445Z,57.23
2023-05-10T04:21:12.553Z,57.09
2023-05-10T04:21:35.329Z,56.96
2023-05-10T04:21:56.936Z,56.62
2023-05-10T04:22:18.552Z,56.37
2023-05-10T04:22:40.356Z,56.80
2023-05-10T04:23:02.962Z,56.99
2023-05-10T04:23:25.565Z,56.83
2023-05-10T04:23:47.334Z,56.67
2023-05-10T04:24:08.962Z,56.38
2023-05-10T04:24:30.557Z,56.82
2023-05-10T04:24:53.083Z,56.56
2023-05-10T04:25:14.863Z,57.21
2023-05-10T04:25:36.598Z,57.16
2023-05-10T04:26:01.629Z,57.49
2023-05-10T04:26:24.331Z,57.56
2023-05-10T04:26:46.394Z,57.97
2023-05-10T04:27:07.983Z,57.96
2023-05-10T04:27:29.597Z,57.95
2023-05-10T04:27:52.224Z,57.74
2023-05-10T04:28:13.948Z,57.76
2023-05-10T04:28:35.763Z,57.57
2023-05-10T04:28:57.385Z,57.78
2023-05-10T04:29:20.072Z,57.53
2023-05-10T04:29:42.072Z,57.68
2023-05-10T04:30:04.298Z,56.94
2023-05-10T04:30:25.916Z,56.89
2023-05-10T04:30:47.699Z,56.67
2023-05-10T04:31:11.802Z,56.59
2023-05-10T04:31:33.750Z,56.63
2023-05-10T04:31:57.485Z,56.76
2023-05-10T04:32:19.913Z,57.06
2023-05-10T04:32:42.581Z,57.18
2023-05-10T04:33:04.433Z,56.97
2023-05-10T04:33:26.282Z,57.11
2023-05-10T04:33:47.857Z,57.15
2023-05-10T04:34:09.475Z,57.29
2023-05-10T04:34:32.216Z,57.34
2023-05-10T04:34:54.127Z,56.99
2023-05-10T04:35:18.710Z,57.25
2023-05-10T04:35:41.028Z,57.36
2023-05-10T04:36:03.761Z,56.86
2023-05-10T04:36:26.316Z,56.83
2023-05-10T04:36:48.012Z,56.53
2023-05-10T04:37:09.693Z,56.62
2023-05-10T04:37:31.669Z,56.85
2023-05-10T04:37:54.267Z,56.81
2023-05-10T04:38:15.844Z,56.73
2023-05-10T04:38:37.524Z,56.94
2023-05-10T04:38:59.173Z,57.14
2023-05-10T04:39:21.698Z,56.88
2023-05-10T04:39:43.414Z,56.90
2023-05-10T04:40:07.061Z,56.87
2023-05-10T04:40:28.680Z,57.24
2023-05-10T04:40:50.341Z,57.29
2023-05-10T04:41:14.040Z,57.21
2023-05-10T04:41:36.108Z,57.34
2023-05-10T04:41:57.949Z,56.93
2023-05-10T04:42:19.572Z,56.08
2023-05-10T04:42:43.125Z,55.90
2023-05-10T04:43:04.713Z,55.76
2023-05-10T04:43:27.174Z,55.92
2023-05-10T04:43:50.017Z,56.31
2023-05-10T04:44:12.624Z,56.57
2023-05-10T04:44:34.252Z,56.80
2023-05-10T04:44:55.837Z,56.68
2023-05-10T04:45:17.921Z,56.80
2023-05-10T04:45:40.558Z,56.67
2023-05-10T04:46:02.352Z,56.70
2023-05-10T04:46:24.055Z,56.32
2023-05-10T04:46:45.930Z,56.29
2023-05-10T04:47:11.272Z,56.06
2023-05-10T04:47:34.284Z,56.23
2023-05-10T04:47:56.064Z,56.52
2023-05-10T04:48:17.726Z,56.72
2023-05-10T04:48:40.317Z,56.90
2023-05-10T04:49:02.031Z,56.71
2023-05-10T04:49:23.783Z,57.13
2023-05-10T04:49:45.360Z,57.40
2023-05-10T04:50:09.078Z,57.36
2023-05-10T04:50:32.585Z,57.29
2023-05-10T04:50:54.860Z,57.22
2023-05-10T04:51:16.697Z,57.19
2023-05-10T04:51:39.288Z,56.96
2023-05-10T04:52:00.880Z,56.77
2023-05-10T04:52:22.498Z,57.00
2023-05-10T04:52:45.083Z,56.50
2023-05-10T04:53:06.637Z,56.17
2023-05-10T04:53:28.310Z,56.37
2023-05-10T04:54:01.388Z,56.46
2023-05-10T04:54:28.568Z,56.75
2023-05-10T04:54:50.598Z,56.53
2023-05-10T04:55:12.365Z,56.54
2023-05-10T04:55:34.119Z,56.56
2023-05-10T04:55:55.897Z,56.43
2023-05-10T04:56:18.548Z,57.00
2023-05-10T04:56:40.508Z,57.17
2023-05-10T04:57:02.118Z,56.93
2023-05-10T04:57:24.780Z,57.07
2023-05-10T04:57:47.649Z,56.90
2023-05-10T04:58:09.597Z,57.11
2023-05-10T04:58:31.359Z,56.45
2023-05-10T04:58:54.144Z,55.94
2023-05-10T04:59:15.781Z,56.17
2023-05-10T04:59:37.612Z,56.44
2023-05-10T05:00:00.629Z,56.29
2023-05-10T05:00:23.641Z,56.72
2023-05-10T05:00:45.242Z,56.54
2023-05-10T05:01:08.167Z,56.55
2023-05-10T05:01:29.798Z,56.27
2023-05-10T05:01:52.498Z,56.26
2023-05-10T05:02:14.209Z,56.69
2023-05-10T05:02:36.096Z,56.81
2023-05-10T05:02:57.875Z,56.61
2023-05-10T05:03:19.626Z,56.35
2023-05-10T05:03:43.512Z,55.84
2023-05-10T05:04:05.955Z,55.97
2023-05-10T05:04:27.574Z,55.96
2023-05-10T05:04:49.124Z,55.56
2023-05-10T05:05:11.785Z,55.90
2023-05-10T05:05:34.749Z,55.67
2023-05-10T05:05:56.419Z,55.85
2023-05-10T05:06:18.046Z,56.05
2023-05-10T05:06:40.637Z,55.94
2023-05-10T05:07:02.239Z,55.57
2023-05-10T05:07:23.817Z,56.01
2023-05-10T05:07:45.472Z,55.49
2023-05-10T05:08:07.094Z,55.39
2023-05-10T05:08:29.662Z,55.62
2023-05-10T05:08:51.322Z,56.25
2023-05-10T05:09:13.117Z,56.34
2023-05-10T05:09:34.727Z,56.14
2023-05-10T05:09:57.292Z,55.70
2023-05-10T05:10:19.398Z,55.86
2023-05-10T05:10:41.310Z,56.26
2023-05-10T05:11:02.988Z,56.50